Time;durP1;ratioP1;P1;durP2;ratioP2;P2;SDS_P1;SDS_P2;PMS_P1;PMS_P2;Temp;Humidity;BMP_temperature;BMP_pressure;BME280_temperature;BME280_humidity;BME280_pressure;Samples;Min_cycle;Max_cycle;Signal;HPM_P1;HPM_P2
2021/04/03 00:00:26;;;;;;;34.45;22.33;;;12.60;81.80;;;;;;5078771;28;20095;-73
2021/04/03 00:02:56;;;;;;;31.38;21.83;;;12.60;81.30;;;;;;5078400;28;20030;-73
2021/04/03 00:05:23;;;;;;;29.52;21.17;;;12.50;81.50;;;;;;5078590;28;20039;-73
2021/04/03 00:07:50;;;;;;;32.42;21.98;;;12.60;81.70;;;;;;5078313;28;20025;-73
2021/04/03 00:10:25;;;;;;;36.28;22.50;;;12.60;81.40;;;;;;5078279;28;20017;-73
2021/04/03 00:12:51;;;;;;;40.13;23.30;;;12.70;81.50;;;;;;5060561;28;20070;-73
2021/04/03 00:15:17;;;;;;;38.22;23.65;;;12.60;82.30;;;;;;5078168;28;20066;-73
2021/04/03 00:17:42;;;;;;;34.50;23.77;;;12.70;82.70;;;;;;5078167;28;20021;-73
2021/04/03 00:20:12;;;;;;;37.97;22.60;;;12.90;82.40;;;;;;5078396;28;20056;-73
2021/04/03 00:22:38;;;;;;;32.97;22.58;;;13.10;81.90;;;;;;5078260;28;20027;-73
2021/04/03 00:25:05;;;;;;;34.67;23.70;;;13.30;81.50;;;;;;5077983;28;20028;-73
2021/04/03 00:27:31;;;;;;;34.15;23.95;;;13.40;81.10;;;;;;5077289;28;20028;-74
2021/04/03 00:29:57;;;;;;;39.83;23.35;;;13.50;81.30;;;;;;5077979;28;20060;-71
2021/04/03 00:32:23;;;;;;;35.15;23.92;;;13.50;82.00;;;;;;5077783;28;20451;-71
2021/04/03 00:34:49;;;;;;;31.35;23.42;;;13.60;82.30;;;;;;5077724;28;20024;-71
2021/04/03 00:37:14;;;;;;;35.03;23.73;;;13.60;82.20;;;;;;5077948;28;20404;-71
2021/04/03 00:39:40;;;;;;;33.60;24.23;;;13.50;82.50;;;;;;5060067;28;20083;-74
2021/04/03 00:42:14;;;;;;;35.80;28.42;;;13.30;83.70;;;;;;5059910;28;20047;-73
2021/04/03 00:44:44;;;;;;;37.28;29.52;;;13.00;86.50;;;;;;5077597;28;20328;-74
2021/04/03 00:47:09;;;;;;;43.92;28.60;;;13.00;87.50;;;;;;5077850;28;20047;-73
2021/04/03 00:49:35;;;;;;;36.78;29.55;;;12.90;87.70;;;;;;5077757;28;20405;-73
2021/04/03 00:52:07;;;;;;;41.78;29.15;;;12.80;88.10;;;;;;5077278;28;20539;-73
2021/04/03 00:54:32;;;;;;;34.17;28.67;;;12.70;88.30;;;;;;5077336;28;20119;-71
2021/04/03 00:56:58;;;;;;;38.80;29.73;;;12.60;88.50;;;;;;5077602;28;20052;-71
2021/04/03 00:59:23;;;;;;;37.20;29.70;;;12.50;88.50;;;;;;5077338;28;20111;-73
2021/04/03 01:01:49;;;;;;;37.33;29.33;;;12.30;88.60;;;;;;5077262;28;20404;-71
2021/04/03 01:04:15;;;;;;;48.42;31.23;;;12.20;89.00;;;;;;5077384;28;20031;-71
2021/04/03 01:06:40;;;;;;;37.20;28.58;;;12.20;88.90;;;;;;5077395;28;20036;-71
2021/04/03 01:09:06;;;;;;;35.95;28.63;;;12.20;89.20;;;;;;5077166;28;20328;-71
2021/04/03 01:11:38;;;;;;;35.92;28.02;;;12.10;89.30;;;;;;5059315;28;20032;-71
2021/04/03 01:14:12;;;;;;;33.75;25.55;;;12.10;89.20;;;;;;5077175;28;20408;-71
2021/04/03 01:16:57;;;;;;;34.72;26.90;;;12.10;88.00;;;;;;5077169;28;20440;-71
2021/04/03 01:19:28;;;;;;;39.78;26.55;;;11.90;87.70;;;;;;5077088;28;20494;-71
2021/04/03 01:22:18;;;;;;;30.88;26.98;;;11.90;88.70;;;;;;5077154;28;20056;-71
2021/04/03 01:25:21;;;;;;;39.53;26.75;;;12.00;88.70;;;;;;5077070;28;20416;-71
2021/04/03 01:28:02;;;;;;;34.20;26.63;;;12.10;88.30;;;;;;5076866;28;20051;-71
2021/04/03 01:30:30;;;;;;;34.08;24.35;;;12.10;88.60;;;;;;5076825;28;20029;-74
2021/04/03 01:33:10;;;;;;;34.08;26.20;;;12.10;87.40;;;;;;5076826;28;20055;-71
2021/04/03 01:35:38;;;;;;;34.13;27.10;;;12.10;88.10;;;;;;5059078;28;20099;-71
2021/04/03 01:38:10;;;;;;;37.38;27.60;;;12.10;88.30;;;;;;5076616;28;20021;-71
2021/04/03 01:40:38;;;;;;;40.72;27.67;;;12.00;88.50;;;;;;5076779;28;20020;-71
2021/04/03 01:43:14;;;;;;;34.42;25.42;;;12.00;88.10;;;;;;5076695;28;20097;-71
2021/04/03 01:45:42;;;;;;;38.95;29.83;;;11.90;87.70;;;;;;5076869;28;20490;-71
2021/04/03 01:48:10;;;;;;;37.78;27.83;;;11.80;89.00;;;;;;5076678;28;20028;-71
2021/04/03 01:50:39;;;;;;;35.67;27.20;;;11.70;90.00;;;;;;5076514;28;20020;-73
2021/04/03 01:53:05;;;;;;;38.58;27.73;;;11.60;88.70;;;;;;5058909;28;20401;-73
2021/04/03 01:55:33;;;;;;;40.55;28.20;;;11.60;89.90;;;;;;5076509;28;20029;-73
2021/04/03 01:57:59;;;;;;;42.80;29.05;;;11.60;90.70;;;;;;5076707;28;20021;-73
2021/04/03 02:00:28;;;;;;;40.75;29.63;;;11.60;91.50;;;;;;5076540;28;20313;-73
2021/04/03 02:02:55;;;;;;;39.53;27.45;;;11.60;91.30;;;;;;5076528;28;20062;-71
2021/04/03 02:05:22;;;;;;;38.85;27.65;;;11.60;90.70;;;;;;5076698;28;20041;-73
2021/04/03 02:07:49;;;;;;;34.13;27.27;;;11.70;90.00;;;;;;5076733;28;20078;-73
2021/04/03 02:10:17;;;;;;;37.63;26.88;;;11.70;89.60;;;;;;5058677;28;20313;-73
2021/04/03 02:12:45;;;;;;;33.85;27.83;;;11.80;89.00;;;;;;5076825;28;20406;-73
2021/04/03 02:15:12;;;;;;;37.90;27.83;;;12.00;87.90;;;;;;5058470;28;20024;-73
2021/04/03 02:17:41;;;;;;;39.45;27.25;;;12.10;87.70;;;;;;5076329;28;20020;-73
2021/04/03 02:20:09;;;;;;;33.92;26.58;;;12.10;87.40;;;;;;5076401;28;20397;-73
2021/04/03 02:22:36;;;;;;;37.30;26.48;;;12.10;87.40;;;;;;5076407;28;20025;-73
2021/04/03 02:25:13;;;;;;;40.47;29.90;;;12.10;87.70;;;;;;5076195;28;20028;-73
2021/04/03 02:27:42;;;;;;;34.55;28.15;;;12.00;88.50;;;;;;5076335;28;20162;-73
2021/04/03 02:30:15;;;;;;;46.42;29.08;;;11.90;89.30;;;;;;5076259;28;20055;-73
2021/04/03 02:33:07;;;;;;;38.63;28.83;;;11.90;89.40;;;;;;5076245;28;20316;-73
2021/04/03 02:35:34;;;;;;;35.70;27.23;;;11.90;89.20;;;;;;5073528;28;20033;-73
2021/04/03 02:38:04;;;;;;;33.92;26.88;;;11.90;89.40;;;;;;5058584;28;20497;-73
2021/04/03 02:40:32;;;;;;;34.85;25.08;;;11.70;89.00;;;;;;5076157;28;20024;-73
2021/04/03 02:43:10;;;;;;;29.67;23.70;;;11.60;88.60;;;;;;5076407;28;20039;-73
2021/04/03 02:45:41;;;;;;;36.85;25.52;;;11.60;88.50;;;;;;5058362;28;20032;-73
2021/04/03 02:48:16;;;;;;;30.55;23.60;;;11.50;88.60;;;;;;5076118;28;20115;-73
2021/04/03 02:50:44;;;;;;;27.27;23.75;;;11.50;88.40;;;;;;5079206;28;20082;-73
2021/04/03 02:53:13;;;;;;;33.95;23.60;;;11.50;88.50;;;;;;5080102;28;20028;-73
2021/04/03 02:55:44;;;;;;;31.23;23.90;;;11.50;88.80;;;;;;5079716;28;20029;-73
2021/04/03 02:58:15;;;;;;;34.50;25.02;;;11.40;88.90;;;;;;5079809;28;20099;-73
2021/04/03 03:00:41;;;;;;;30.30;22.13;;;11.30;88.90;;;;;;5079650;28;20024;-73
2021/04/03 03:03:08;;;;;;;31.63;22.52;;;11.30;88.30;;;;;;5079775;28;20324;-73
2021/04/03 03:05:35;;;;;;;26.42;21.52;;;11.20;89.00;;;;;;5079460;28;20020;-73
2021/04/03 03:08:04;;;;;;;25.30;21.10;;;11.20;88.50;;;;;;5079451;28;20036;-73
2021/04/03 03:10:31;;;;;;;28.77;22.00;;;11.20;88.40;;;;;;5079479;28;20024;-73
2021/04/03 03:12:57;;;;;;;29.52;22.35;;;11.20;88.20;;;;;;5079385;28;20414;-73
2021/04/03 03:15:28;;;;;;;28.85;19.45;;;11.20;88.20;;;;;;5079505;28;20021;-73
2021/04/03 03:17:55;;;;;;;24.63;19.52;;;11.10;88.20;;;;;;5079332;28;20032;-73
2021/04/03 03:20:21;;;;;;;30.08;19.90;;;11.10;88.00;;;;;;5079577;28;20305;-73
2021/04/03 03:22:46;;;;;;;25.25;19.27;;;11.10;87.60;;;;;;5079509;28;20028;-73
2021/04/03 03:25:12;;;;;;;25.50;19.48;;;11.20;87.60;;;;;;5079103;28;20421;-73
2021/04/03 03:27:41;;;;;;;27.58;20.08;;;11.10;87.30;;;;;;5061173;28;20244;-73
2021/04/03 03:30:08;;;;;;;27.45;17.60;;;11.20;87.10;;;;;;5079031;28;20020;-73
2021/04/03 03:32:36;;;;;;;26.30;18.63;;;11.20;86.60;;;;;;5078961;28;20028;-73
2021/04/03 03:35:04;;;;;;;22.98;18.52;;;11.10;86.30;;;;;;5078919;28;20408;-73
2021/04/03 04:08:28;;;;;;;25.42;19.60;;;11.00;85.90;;;;;;5078534;28;20110;-73
2021/04/03 04:10:54;;;;;;;26.13;20.05;;;11.10;85.80;;;;;;5078144;28;20481;-73
2021/04/03 04:13:20;;;;;;;32.95;20.65;;;11.10;85.20;;;;;;5078176;28;20032;-73
2021/04/03 04:15:45;;;;;;;28.23;19.48;;;11.10;85.30;;;;;;5078209;28;20025;-73
2021/04/03 04:18:11;;;;;;;29.20;19.50;;;11.00;85.20;;;;;;5078635;28;20288;-73
2021/04/03 04:20:37;;;;;;;27.65;19.63;;;10.90;85.40;;;;;;5078155;28;20028;-73
2021/04/03 04:23:03;;;;;;;23.15;19.30;;;10.90;85.50;;;;;;5078324;28;20029;-73
2021/04/03 04:25:29;;;;;;;25.80;18.70;;;11.00;84.50;;;;;;5077956;28;20335;-73
2021/04/03 04:27:55;;;;;;;24.38;17.60;;;10.90;84.60;;;;;;5077683;28;20052;-73
2021/04/03 04:30:21;;;;;;;23.23;17.42;;;10.90;84.50;;;;;;5078070;28;20017;-73
2021/04/03 04:32:47;;;;;;;19.90;16.88;;;11.00;84.30;;;;;;5078129;28;20096;-73
2021/04/03 04:35:13;;;;;;;30.13;16.73;;;11.00;84.30;;;;;;5077750;28;20059;-73
2021/04/03 04:37:40;;;;;;;24.95;17.35;;;11.00;84.40;;;;;;5077734;28;20048;-73
2021/04/03 04:40:08;;;;;;;23.67;17.55;;;10.90;84.20;;;;;;5077987;28;20032;-73
2021/04/03 04:42:33;;;;;;;22.83;15.48;;;11.00;84.50;;;;;;5077620;28;20031;-73
2021/04/03 04:44:59;;;;;;;26.13;17.20;;;11.00;84.70;;;;;;5077668;28;20064;-73
2021/04/03 04:47:25;;;;;;;22.83;16.50;;;11.00;84.60;;;;;;5077587;28;20021;-73
2021/04/03 04:49:52;;;;;;;21.60;16.00;;;11.00;84.60;;;;;;5077544;28;20408;-73
2021/04/03 04:52:18;;;;;;;24.05;15.20;;;10.90;84.10;;;;;;5077639;28;20107;-73
2021/04/03 04:54:44;;;;;;;21.52;15.70;;;10.80;84.30;;;;;;5077365;28;20475;-73
2021/04/03 04:57:09;;;;;;;43.75;18.52;;;10.70;83.90;;;;;;5077419;28;20134;-73
2021/04/03 04:59:35;;;;;;;20.70;15.93;;;10.60;85.70;;;;;;5077644;28;20025;-73
2021/04/03 05:02:01;;;;;;;20.75;15.00;;;10.50;86.60;;;;;;5077551;28;20099;-73
2021/04/03 05:04:26;;;;;;;25.65;15.57;;;10.60;86.80;;;;;;5077165;28;20444;-73
2021/04/03 05:06:52;;;;;;;19.00;14.18;;;10.60;86.40;;;;;;5077241;28;20024;-73
2021/04/03 05:09:18;;;;;;;23.77;15.15;;;10.60;86.50;;;;;;5077187;28;20020;-73
2021/04/03 05:11:44;;;;;;;21.77;15.00;;;10.70;86.50;;;;;;5077060;28;20312;-73
2021/04/03 05:14:09;;;;;;;21.50;14.90;;;10.70;86.40;;;;;;5077042;28;20027;-72
2021/04/03 05:16:35;;;;;;;21.65;14.32;;;10.70;86.30;;;;;;5077172;28;20413;-73
2021/04/03 05:19:01;;;;;;;21.00;14.93;;;10.70;86.40;;;;;;5077218;28;20017;-73
2021/04/03 05:21:27;;;;;;;24.35;14.32;;;10.60;86.80;;;;;;5077233;28;20035;-73
2021/04/03 05:23:53;;;;;;;22.20;14.75;;;10.70;86.80;;;;;;5077330;28;20304;-73
2021/04/03 05:26:18;;;;;;;20.40;13.63;;;10.60;86.90;;;;;;5077254;28;20162;-73
2021/04/03 05:28:44;;;;;;;19.77;12.60;;;10.60;86.80;;;;;;5076827;28;20048;-73
2021/04/03 05:31:13;;;;;;;18.73;12.52;;;10.70;86.60;;;;;;5076835;28;20388;-73
2021/04/03 05:33:39;;;;;;;23.15;12.50;;;10.80;86.40;;;;;;5076782;28;20473;-73
2021/04/03 05:36:05;;;;;;;16.50;13.18;;;11.00;86.00;;;;;;5076825;28;20108;-73
2021/04/03 05:38:31;;;;;;;18.05;12.57;;;11.00;85.80;;;;;;5077080;28;20337;-73
2021/04/03 05:55:05;;;;;;;17.17;10.30;;;11.40;85.30;;;;;;5076612;28;20028;-73
2021/04/03 05:57:31;;;;;;;14.70;9.48;;;11.60;84.30;;;;;;5076632;28;20028;-73
2021/04/03 05:59:56;;;;;;;13.90;9.95;;;11.70;84.30;;;;;;5076610;28;20016;-73
2021/04/03 06:02:23;;;;;;;13.95;9.60;;;11.80;83.90;;;;;;5076583;28;20082;-73
2021/04/03 06:04:52;;;;;;;14.23;8.80;;;11.80;84.20;;;;;;5076569;28;20033;-73
2021/04/03 06:07:18;;;;;;;14.00;10.02;;;11.90;83.40;;;;;;5076541;28;20025;-73
2021/04/03 06:09:44;;;;;;;14.68;9.85;;;12.00;83.50;;;;;;5076578;28;20024;-73
2021/04/03 06:12:10;;;;;;;17.05;9.00;;;12.10;83.40;;;;;;5076403;28;20025;-73
2021/04/03 06:14:36;;;;;;;14.23;9.68;;;12.10;83.20;;;;;;5076322;28;20285;-73
2021/04/03 06:17:03;;;;;;;13.48;10.13;;;12.20;82.60;;;;;;5076419;28;20024;-73
2021/04/03 06:19:29;;;;;;;13.63;8.02;;;12.20;82.80;;;;;;5076527;28;20021;-73
2021/04/03 06:22:03;;;;;;;16.17;9.25;;;12.10;82.50;;;;;;5076252;28;20037;-73
2021/04/03 06:24:30;;;;;;;12.50;7.70;;;12.10;82.60;;;;;;5077765;28;20108;-73
2021/04/03 06:27:05;;;;;;;15.20;7.78;;;11.90;83.20;;;;;;5080305;28;20025;-73
2021/04/03 06:29:41;;;;;;;13.25;7.40;;;11.90;83.70;;;;;;5080208;28;20071;-73
2021/04/03 06:32:30;;;;;;;12.50;7.78;;;11.90;83.60;;;;;;5080176;28;20025;-73
2021/04/03 06:34:56;;;;;;;10.88;6.88;;;11.80;82.70;;;;;;5080161;28;20346;-73
2021/04/03 06:37:33;;;;;;;15.10;7.38;;;11.80;83.70;;;;;;5080239;28;20359;-73
2021/04/03 06:40:05;;;;;;;10.55;7.35;;;11.80;83.40;;;;;;5080130;28;20028;-73
2021/04/03 06:43:03;;;;;;;14.27;7.75;;;11.90;83.00;;;;;;5080215;28;20028;-73
2021/04/03 06:45:34;;;;;;;13.40;7.60;;;11.90;81.70;;;;;;5035753;28;20044;-73
2021/04/03 06:48:05;;;;;;;11.88;7.15;;;11.90;81.80;;;;;;5080231;28;20428;-73
2021/04/03 06:50:36;;;;;;;9.68;7.03;;;11.90;81.70;;;;;;5079803;28;20029;-73
2021/04/03 06:53:11;;;;;;;7.68;5.57;;;12.00;81.90;;;;;;5080127;28;20422;-73
2021/04/03 06:55:38;;;;;;;7.03;5.20;;;12.20;79.80;;;;;;5079782;28;20146;-73
2021/04/03 06:58:06;;;;;;;10.05;4.63;;;12.40;78.50;;;;;;5079933;28;20054;-73
2021/04/03 07:00:33;;;;;;;7.00;4.47;;;12.60;77.60;;;;;;5079656;28;20020;-73
2021/04/03 07:03:05;;;;;;;5.60;4.00;;;12.70;76.10;;;;;;5079640;28;20024;-73
2021/04/03 07:05:36;;;;;;;5.28;3.53;;;12.80;75.00;;;;;;5080207;28;20053;-73
2021/04/03 07:08:04;;;;;;;5.35;3.80;;;12.90;75.30;;;;;;5079532;28;20028;-73
2021/04/03 07:10:30;;;;;;;5.82;3.38;;;12.90;74.40;;;;;;5061646;28;20436;-73
2021/04/03 07:12:58;;;;;;;4.80;3.40;;;12.90;74.90;;;;;;5079426;28;20027;-73
2021/04/03 07:15:25;;;;;;;6.00;3.20;;;13.00;74.70;;;;;;5079321;28;20024;-73
2021/04/03 07:17:52;;;;;;;3.28;2.90;;;13.20;73.70;;;;;;5079417;28;20024;-73
2021/04/03 07:20:23;;;;;;;7.13;3.10;;;13.30;72.50;;;;;;5061619;28;20507;-73
2021/04/03 07:23:10;;;;;;;6.03;2.80;;;13.50;72.50;;;;;;5079234;28;20099;-73
2021/04/03 07:25:40;;;;;;;3.00;1.92;;;13.60;72.50;;;;;;5079254;28;20059;-73
2021/04/03 07:28:07;;;;;;;3.00;2.20;;;13.60;70.40;;;;;;5078932;28;20055;-73
2021/04/03 07:30:35;;;;;;;4.13;1.50;;;13.60;71.70;;;;;;5079054;28;20059;-73
2021/04/03 07:33:15;;;;;;;2.25;1.83;;;13.60;70.10;;;;;;5079322;28;20107;-73
2021/04/03 07:35:52;;;;;;;2.40;1.50;;;13.80;70.40;;;;;;5078238;28;20025;-73
2021/04/03 07:38:34;;;;;;;8.27;3.17;;;13.90;70.00;;;;;;5079040;28;20032;-73
2021/04/03 07:41:02;;;;;;;3.42;1.77;;;14.00;68.00;;;;;;5079079;28;20119;-73
2021/04/03 07:43:34;;;;;;;3.08;1.80;;;14.00;67.30;;;;;;5078936;28;20103;-73
2021/04/03 07:46:08;;;;;;;3.13;1.73;;;13.90;67.80;;;;;;5078849;28;20107;-73
2021/04/03 07:48:54;;;;;;;3.50;1.50;;;13.90;70.20;;;;;;5079050;28;20024;-73
2021/04/03 07:51:23;;;;;;;3.70;1.83;;;13.90;68.60;;;;;;5078997;28;20472;-73
2021/04/03 07:53:52;;;;;;;4.53;2.00;;;13.90;68.10;;;;;;5079006;28;20354;-73
2021/04/03 07:56:51;;;;;;;3.33;1.85;;;13.70;68.30;;;;;;5078605;28;20051;-73
2021/04/03 07:59:17;;;;;;;5.93;1.75;;;13.30;69.40;;;;;;5066093;28;20115;-73
2021/04/03 08:01:47;;;;;;;3.40;1.70;;;13.20;69.30;;;;;;5078623;28;20020;-73
2021/04/03 08:04:13;;;;;;;3.05;2.03;;;13.20;69.60;;;;;;5078368;28;20438;-73
2021/04/03 08:06:42;;;;;;;4.13;2.17;;;13.30;69.70;;;;;;5078451;28;20032;-73
2021/04/03 08:09:17;;;;;;;4.55;1.92;;;13.40;68.50;;;;;;5078587;28;20059;-73
2021/04/03 08:11:47;;;;;;;3.75;1.95;;;13.50;69.10;;;;;;5078290;28;20107;-73
2021/04/03 08:14:15;;;;;;;6.25;2.03;;;13.60;69.20;;;;;;5078243;28;20017;-73
2021/04/03 08:16:41;;;;;;;4.68;2.25;;;13.70;68.20;;;;;;5078265;28;20052;-73
2021/04/03 08:19:08;;;;;;;7.03;1.92;;;13.80;67.80;;;;;;5078216;28;20028;-73
2021/04/03 08:21:45;;;;;;;3.17;2.25;;;14.00;67.40;;;;;;5078151;28;20021;-73
2021/04/03 08:27:34;;;;;;;5.22;1.95;;;14.70;65.00;;;;;;5078132;28;20344;-74
2021/04/03 08:30:00;;;;;;;3.35;2.30;;;15.30;64.90;;;;;;5077984;28;20405;-73
2021/04/03 08:32:26;;;;;;;6.45;2.65;;;15.60;62.80;;;;;;5060129;28;20074;-74
2021/04/03 08:34:52;;;;;;;3.17;1.77;;;15.60;62.10;;;;;;5077772;28;20024;-74
2021/04/03 08:37:18;;;;;;;4.53;2.63;;;16.10;61.70;;;;;;5077922;28;20025;-72
2021/04/03 08:39:44;;;;;;;6.82;2.30;;;16.70;59.30;;;;;;5077873;28;20027;-73
2021/04/03 08:42:10;;;;;;;6.55;2.53;;;17.00;59.40;;;;;;5060011;28;20052;-72
2021/04/03 08:44:36;;;;;;;3.25;2.15;;;17.40;58.90;;;;;;5077714;28;20031;-74
2021/04/03 08:47:05;;;;;;;10.48;2.30;;;17.50;57.40;;;;;;5077284;28;20051;-72
2021/04/03 08:49:40;;;;;;;7.22;2.40;;;18.10;57.20;;;;;;5077721;28;20059;-73
2021/04/03 08:52:10;;;;;;;6.43;2.25;;;18.90;56.90;;;;;;5077816;28;20316;-73
2021/04/03 08:54:40;;;;;;;3.92;2.10;;;19.40;54.20;;;;;;5077445;28;20416;-73
2021/04/03 08:57:22;;;;;;;4.20;2.17;;;19.70;54.10;;;;;;5077367;28;20048;-72
2021/04/03 08:59:48;;;;;;;6.18;2.30;;;20.30;52.40;;;;;;5077556;28;20066;-72
2021/04/03 09:02:14;;;;;;;4.20;2.53;;;20.60;51.90;;;;;;5077355;28;20059;-72
2021/04/03 09:04:41;;;;;;;8.15;2.47;;;20.60;51.90;;;;;;5077220;28;20024;-73
2021/04/03 09:07:06;;;;;;;5.95;2.30;;;20.30;51.50;;;;;;5077262;28;20035;-73
2021/04/03 09:09:32;;;;;;;4.60;2.40;;;19.90;52.50;;;;;;5077222;28;20329;-73
2021/04/03 09:12:00;;;;;;;6.63;2.38;;;19.70;53.30;;;;;;5077473;28;20033;-73
2021/04/03 09:14:35;;;;;;;4.00;2.60;;;19.70;54.00;;;;;;5077053;28;20317;-73
2021/04/03 09:17:02;;;;;;;8.77;3.00;;;19.70;53.50;;;;;;5059429;28;20029;-72
2021/04/03 09:19:34;;;;;;;9.00;3.55;;;20.20;53.40;;;;;;5077307;28;20250;-73
2021/04/03 09:22:00;;;;;;;4.38;2.70;;;20.70;51.60;;;;;;5059313;28;20035;-73
2021/04/03 09:24:37;;;;;;;4.95;2.72;;;20.70;52.70;;;;;;5076951;28;20417;-72
2021/04/03 09:27:21;;;;;;;4.47;2.72;;;21.30;50.50;;;;;;5076970;28;20099;-73
2021/04/03 09:29:49;;;;;;;3.67;2.40;;;21.40;49.90;;;;;;5077057;28;20043;-72
2021/04/03 09:32:17;;;;;;;3.00;2.50;;;21.40;51.60;;;;;;5076831;28;20032;-72
2021/04/03 09:34:43;;;;;;;4.10;2.78;;;21.30;50.00;;;;;;5076791;28;20017;-72
2021/04/03 09:37:17;;;;;;;3.70;2.70;;;20.80;49.50;;;;;;5059073;28;20044;-72
2021/04/03 09:39:51;;;;;;;4.50;3.17;;;19.60;51.90;;;;;;5076715;28;20024;-72
2021/04/03 09:42:19;;;;;;;5.45;2.55;;;18.30;53.70;;;;;;5077079;28;20024;-72
2021/04/03 09:44:46;;;;;;;6.25;3.33;;;18.10;57.20;;;;;;5076678;28;20037;-72
2021/04/03 09:47:12;;;;;;;3.90;2.80;;;18.60;56.00;;;;;;5076719;28;20025;-72
2021/04/03 09:49:39;;;;;;;3.85;2.70;;;18.30;54.40;;;;;;5076713;28;20029;-72
2021/04/03 09:52:07;;;;;;;5.03;3.42;;;18.20;55.60;;;;;;5076642;28;20032;-74
2021/04/03 09:54:33;;;;;;;4.07;2.60;;;17.70;56.50;;;;;;5076705;28;20056;-72
2021/04/03 09:57:01;;;;;;;5.93;2.72;;;17.30;58.40;;;;;;5076633;28;20020;-73
2021/04/03 09:59:27;;;;;;;6.63;3.25;;;16.70;59.60;;;;;;5075924;28;20501;-74
2021/04/03 10:01:54;;;;;;;6.47;3.38;;;16.20;59.90;;;;;;5076592;28;20020;-74
2021/04/03 10:04:19;;;;;;;6.65;3.22;;;16.00;60.10;;;;;;5076513;28;20033;-73
2021/04/03 10:06:45;;;;;;;7.60;3.53;;;16.00;60.40;;;;;;5058793;28;20031;-73
2021/04/03 10:09:11;;;;;;;5.07;3.20;;;15.90;62.20;;;;;;5076853;28;20035;-73
2021/04/03 10:11:37;;;;;;;5.68;3.53;;;15.80;61.80;;;;;;5076262;28;20016;-73
2021/04/03 10:14:03;;;;;;;6.43;3.25;;;16.30;61.50;;;;;;5079006;28;20484;-72
2021/04/03 10:16:28;;;;;;;8.30;3.47;;;16.60;59.80;;;;;;5087543;28;20355;-73
2021/04/03 10:18:54;;;;;;;5.38;3.50;;;16.30;61.80;;;;;;5096612;28;20109;-74
2021/04/03 10:21:21;;;;;;;9.20;4.55;;;16.00;59.80;;;;;;5096624;28;20027;-74
2021/04/03 10:23:47;;;;;;;5.15;3.53;;;15.90;61.70;;;;;;5096931;28;20404;-73
2021/04/03 10:26:13;;;;;;;5.80;3.60;;;15.60;63.00;;;;;;5096772;28;20036;-72
2021/04/03 10:28:39;;;;;;;5.68;3.50;;;15.30;63.20;;;;;;5096481;28;20074;-72
2021/04/03 10:31:05;;;;;;;6.72;4.00;;;15.20;62.30;;;;;;5096417;28;20111;-72
2021/04/03 10:33:30;;;;;;;4.88;3.47;;;14.90;63.40;;;;;;5096429;28;20024;-72
2021/04/03 10:35:56;;;;;;;7.03;3.25;;;14.90;62.20;;;;;;5096500;28;20016;-72
2021/04/03 10:38:22;;;;;;;6.32;3.33;;;15.00;62.90;;;;;;5078550;28;20073;-72
2021/04/03 10:40:48;;;;;;;6.85;3.92;;;14.80;63.80;;;;;;5096631;28;20028;-72
2021/04/03 10:43:14;;;;;;;6.95;3.75;;;14.70;65.70;;;;;;5078426;28;20404;-72
2021/04/03 10:45:39;;;;;;;5.53;3.58;;;14.70;64.70;;;;;;5096645;28;20069;-72
2021/04/03 10:48:05;;;;;;;9.60;3.80;;;14.80;64.80;;;;;;5096517;28;20476;-72
2021/04/03 10:50:31;;;;;;;8.50;3.30;;;14.80;65.00;;;;;;5096742;28;20024;-72
2021/04/03 10:52:57;;;;;;;8.15;3.97;;;14.80;63.30;;;;;;5078732;28;20040;-72
2021/04/03 10:55:23;;;;;;;8.93;3.75;;;15.10;64.20;;;;;;5096203;28;20032;-72
2021/04/03 10:57:49;;;;;;;6.50;3.58;;;15.50;60.70;;;;;;5078400;28;20028;-72
2021/04/03 11:00:15;;;;;;;5.50;3.90;;;15.80;62.40;;;;;;5096317;28;20047;-72
2021/04/03 11:02:41;;;;;;;7.20;4.72;;;16.40;60.90;;;;;;5078295;28;20028;-73
2021/04/03 11:05:07;;;;;;;5.90;3.42;;;17.50;60.00;;;;;;5078207;28;20024;-72
2021/04/03 11:07:33;;;;;;;9.10;4.03;;;18.40;55.00;;;;;;5096201;28;20024;-73
2021/04/03 11:09:59;;;;;;;7.15;4.25;;;18.60;53.10;;;;;;5096593;28;20061;-73
2021/04/03 11:12:24;;;;;;;16.27;4.13;;;17.90;54.90;;;;;;5099695;28;20020;-73
2021/04/03 11:14:50;;;;;;;5.40;3.60;;;17.00;56.70;;;;;;5081735;28;20107;-72
2021/04/03 11:17:16;;;;;;;6.13;4.05;;;16.50;56.80;;;;;;5099663;28;20032;-72
2021/04/03 11:19:42;;;;;;;8.80;3.85;;;16.10;59.10;;;;;;5099573;28;20031;-72
2021/04/03 11:22:07;;;;;;;6.10;3.55;;;16.10;58.40;;;;;;5099529;28;20039;-73
2021/04/03 11:24:34;;;;;;;7.13;3.63;;;16.30;58.10;;;;;;5099624;28;20315;-73
2021/04/03 11:27:01;;;;;;;9.45;4.18;;;16.90;59.90;;;;;;5099526;28;20477;-73
2021/04/03 11:29:27;;;;;;;5.45;4.38;;;17.80;56.20;;;;;;5099253;28;20064;-73
2021/04/03 11:31:52;;;;;;;7.05;3.55;;;18.80;56.50;;;;;;5099312;28;20024;-73
2021/04/03 11:34:18;;;;;;;7.32;3.85;;;19.40;53.30;;;;;;5099510;28;20031;-73
2021/04/03 11:36:44;;;;;;;6.70;4.10;;;19.90;52.00;;;;;;5099323;28;20032;-73
2021/04/03 11:39:10;;;;;;;9.63;3.70;;;19.90;49.60;;;;;;5099266;28;20024;-73
2021/04/03 11:41:36;;;;;;;5.30;3.60;;;19.30;52.10;;;;;;5099203;28;20028;-73
2021/04/03 11:44:02;;;;;;;5.10;3.95;;;19.10;50.60;;;;;;5099057;28;20028;-73
2021/04/03 11:46:28;;;;;;;12.07;4.88;;;18.80;52.80;;;;;;5099106;28;20428;-73
2021/04/03 11:48:54;;;;;;;9.57;4.93;;;18.30;54.10;;;;;;5099268;28;20024;-73
2021/04/03 11:51:19;;;;;;;7.88;4.45;;;17.90;54.80;;;;;;5099220;28;20412;-73
2021/04/03 11:53:45;;;;;;;6.43;4.05;;;17.30;55.20;;;;;;5081155;28;20016;-73
2021/04/03 11:56:12;;;;;;;7.55;4.85;;;17.00;56.00;;;;;;5098916;28;20028;-73
2021/04/03 11:58:38;;;;;;;4.95;4.45;;;17.00;57.70;;;;;;5099011;28;20024;-73
2021/04/03 12:01:04;;;;;;;9.07;4.70;;;17.10;55.90;;;;;;5098824;28;20095;-73
2021/04/03 12:03:30;;;;;;;10.90;5.07;;;16.90;56.40;;;;;;5098741;28;20024;-73
2021/04/03 12:05:56;;;;;;;6.53;5.22;;;16.70;57.50;;;;;;5099035;28;20110;-73
2021/04/03 12:08:22;;;;;;;6.43;5.25;;;16.60;59.30;;;;;;5098711;28;20320;-72
2021/04/03 12:10:50;;;;;;;8.35;5.40;;;16.70;57.80;;;;;;5098536;28;20035;-73
2021/04/03 12:13:15;;;;;;;8.30;5.25;;;16.90;58.80;;;;;;5098514;28;20039;-72
2021/04/03 12:15:41;;;;;;;6.82;4.95;;;17.30;55.10;;;;;;5099012;28;20036;-73
2021/04/03 12:18:07;;;;;;;8.07;4.85;;;17.80;57.40;;;;;;5099082;28;20028;-73
2021/04/03 12:20:33;;;;;;;8.73;4.85;;;18.50;54.40;;;;;;5098354;28;20031;-73
2021/04/03 12:23:00;;;;;;;5.95;4.43;;;18.80;51.30;;;;;;5097956;28;20030;-73
2021/04/03 12:25:27;;;;;;;9.55;5.30;;;19.00;53.20;;;;;;5098265;28;20016;-73
2021/04/03 12:27:53;;;;;;;7.47;5.28;;;18.90;52.50;;;;;;5098099;28;20040;-73
2021/04/03 12:30:19;;;;;;;7.13;4.32;;;18.60;51.90;;;;;;5098247;28;20069;-72
2021/04/03 12:32:45;;;;;;;5.60;4.28;;;18.50;52.00;;;;;;5080232;28;20024;-73
2021/04/03 12:35:12;;;;;;;6.90;4.50;;;17.90;53.80;;;;;;5080201;28;20081;-73
2021/04/03 12:37:38;;;;;;;6.85;4.72;;;17.60;55.10;;;;;;5080165;28;20419;-73
2021/04/03 12:40:05;;;;;;;6.00;4.60;;;17.20;53.30;;;;;;5098139;28;20018;-73
2021/04/03 12:42:31;;;;;;;8.25;4.90;;;17.00;54.90;;;;;;5097982;28;20100;-72
2021/04/03 12:44:56;;;;;;;7.85;5.10;;;16.90;56.10;;;;;;5098078;28;20404;-72
2021/04/03 12:47:22;;;;;;;7.90;5.70;;;17.10;56.50;;;;;;5097919;28;20027;-73
2021/04/03 12:49:48;;;;;;;8.57;4.53;;;17.30;55.00;;;;;;5097908;28;20020;-72
2021/04/03 12:52:14;;;;;;;7.45;4.82;;;17.40;51.90;;;;;;5098020;28;20085;-72
2021/04/03 12:54:40;;;;;;;6.20;4.60;;;17.50;57.20;;;;;;5097714;28;20028;-72
2021/04/03 12:57:06;;;;;;;5.28;4.78;;;17.40;52.60;;;;;;5097834;28;20069;-73
2021/04/03 12:59:32;;;;;;;7.68;4.57;;;17.10;55.80;;;;;;5097761;28;20031;-73
2021/04/03 13:01:58;;;;;;;5.82;4.50;;;17.30;53.20;;;;;;5097622;28;20028;-72
2021/04/03 13:04:24;;;;;;;10.60;5.00;;;17.00;52.80;;;;;;5097474;28;20030;-72
2021/04/03 13:06:49;;;;;;;7.70;4.78;;;16.80;54.70;;;;;;5079649;28;20050;-72
2021/04/03 13:09:15;;;;;;;9.23;4.75;;;16.70;56.10;;;;;;5097725;28;20028;-72
2021/04/03 13:11:41;;;;;;;11.65;4.97;;;16.60;54.10;;;;;;5097365;28;20328;-72
2021/04/03 13:14:07;;;;;;;9.85;4.80;;;16.20;55.60;;;;;;5097423;28;20039;-72
2021/04/03 13:16:33;;;;;;;7.30;4.20;;;16.10;56.60;;;;;;5097357;28;20399;-72
2021/04/03 13:18:59;;;;;;;6.13;4.30;;;15.80;56.30;;;;;;5097406;28;20027;-72
2021/04/03 13:21:24;;;;;;;8.98;4.07;;;15.70;56.10;;;;;;5097342;28;20300;-74
2021/04/03 13:23:50;;;;;;;8.93;4.63;;;15.60;57.30;;;;;;5097674;28;20039;-72
2021/04/03 13:26:16;;;;;;;6.55;4.00;;;15.50;55.90;;;;;;5097301;28;20423;-72
2021/04/03 13:28:42;;;;;;;6.35;4.25;;;15.40;56.50;;;;;;5097266;28;20348;-72
2021/04/03 13:31:08;;;;;;;7.57;4.38;;;15.30;57.70;;;;;;5097100;28;20077;-72